createdAt,value
2022-12-13T07:31:41.233Z,-17.28
2022-12-13T07:36:45.146Z,-17.71
2022-12-13T07:41:48.799Z,-17.56
2022-12-13T07:46:54.824Z,-18.00
2022-12-13T07:51:58.821Z,-17.67
2022-12-13T07:57:05.121Z,-17.36
2022-12-13T08:02:14.808Z,-18.60
2022-12-13T08:07:21.087Z,-17.37
2022-12-13T08:12:24.825Z,-17.45
2022-12-13T08:17:32.233Z,-17.44
2022-12-13T08:22:36.342Z,-17.48
2022-12-13T08:27:42.940Z,-17.76
2022-12-13T08:32:51.080Z,-18.38
2022-12-13T08:37:55.249Z,-17.26
2022-12-13T08:42:59.145Z,-17.19
2022-12-13T08:48:04.506Z,-17.10
2022-12-13T08:53:08.560Z,-17.47
2022-12-13T08:58:12.611Z,-18.32
2022-12-13T09:03:17.786Z,-17.12
2022-12-13T09:08:24.424Z,-17.21
2022-12-13T09:13:31.371Z,-17.67
2022-12-13T09:18:37.688Z,-16.92
2022-12-13T09:23:45.712Z,-17.27
2022-12-13T09:28:49.947Z,-17.05
2022-12-13T09:33:55.572Z,-16.86
2022-12-13T09:38:59.900Z,-16.89
2022-12-13T09:44:31.161Z,-17.51
2022-12-13T09:49:40.756Z,-17.52
2022-12-13T09:54:48.615Z,-17.63
2022-12-13T09:59:57.227Z,-16.88
2022-12-13T10:05:22.856Z,-17.00
2022-12-13T10:10:29.111Z,-17.87
2022-12-13T10:15:34.188Z,-16.66
2022-12-13T10:20:40.107Z,-16.53
2022-12-13T10:25:51.867Z,-16.81
2022-12-13T10:30:59.328Z,-16.47
2022-12-13T10:36:09.212Z,-16.47
2022-12-13T10:41:34.776Z,-17.26
2022-12-13T10:46:39.133Z,-16.65
2022-12-13T10:51:46.123Z,-18.42
2022-12-13T10:56:54.024Z,-17.56
2022-12-13T11:02:04.906Z,-16.23
2022-12-13T11:07:24.783Z,-16.23
2022-12-13T11:12:29.139Z,-16.19
2022-12-13T11:17:37.481Z,-16.77
2022-12-13T11:22:43.092Z,-16.74
2022-12-13T11:28:02.116Z,-16.47
2022-12-13T11:33:19.687Z,-16.85
2022-12-13T11:38:43.691Z,-16.41
2022-12-13T11:43:54.383Z,-16.27
2022-12-13T11:49:04.019Z,-18.36
2022-12-13T11:54:23.784Z,-17.09
2022-12-13T12:05:30.894Z,-16.11
2022-12-13T12:10:49.340Z,-16.11
2022-12-13T12:16:06.565Z,-16.26
2022-12-13T12:22:12.738Z,-16.23
2022-12-13T12:28:34.491Z,-18.14
2022-12-13T12:33:54.370Z,-17.27
2022-12-13T12:39:26.231Z,-16.18
2022-12-13T12:44:43.864Z,-17.83
2022-12-13T12:50:20.495Z,-16.30
2022-12-13T12:55:38.196Z,-18.11
2022-12-13T13:00:58.419Z,-16.74
2022-12-13T13:06:07.355Z,-16.13
2022-12-13T13:11:24.302Z,-18.23
2022-12-13T13:16:37.612Z,-17.57
2022-12-13T13:21:49.527Z,-15.54
2022-12-13T13:26:57.859Z,-15.50
2022-12-13T13:32:28.044Z,-15.47
2022-12-13T13:37:51.831Z,-15.52
2022-12-13T13:43:16.103Z,-15.89
2022-12-13T13:48:43.313Z,-16.04
2022-12-13T13:54:18.045Z,-17.69
2022-12-13T13:59:59.939Z,-16.33
2022-12-13T14:05:33.065Z,-17.13
2022-12-13T14:10:52.309Z,-16.42
2022-12-13T14:16:39.521Z,-17.05
2022-12-13T14:22:05.531Z,-16.44
2022-12-13T14:27:33.654Z,-16.51
2022-12-13T14:32:40.331Z,-16.77
2022-12-13T14:37:57.876Z,-16.62
2022-12-13T14:43:28.048Z,-16.59
2022-12-13T14:48:38.527Z,-19.33
2022-12-13T14:53:44.904Z,-18.05
2022-12-13T14:58:55.003Z,-17.06
2022-12-13T15:04:26.821Z,-16.85
2022-12-13T15:09:38.295Z,-17.63
2022-12-13T15:14:44.880Z,-16.90
2022-12-13T15:19:49.656Z,-16.72
2022-12-13T15:25:16.292Z,-16.75
2022-12-13T15:30:30.494Z,-16.74
2022-12-13T15:35:37.902Z,-16.94
2022-12-13T15:40:47.148Z,-16.77
2022-12-13T15:45:53.609Z,-16.82
2022-12-13T15:51:11.059Z,-17.77
2022-12-13T15:56:36.792Z,-19.41
2022-12-13T16:01:56.488Z,-19.13
2022-12-13T16:07:03.516Z,-17.00
2022-12-13T16:12:08.846Z,-16.81
2022-12-13T16:17:20.645Z,-17.32
2022-12-13T16:22:24.385Z,-17.72
2022-12-13T16:27:30.227Z,-17.29
2022-12-13T16:32:44.462Z,-17.17
2022-12-13T16:37:59.176Z,-17.84
2022-12-13T16:43:07.906Z,-18.25
2022-12-13T16:48:11.974Z,-17.64
2022-12-13T16:53:17.608Z,-17.73
2022-12-13T17:03:42.247Z,-17.86
2022-12-13T17:08:46.169Z,-18.07
2022-12-13T17:13:51.624Z,-17.95
2022-12-13T17:18:56.785Z,-18.48
2022-12-13T17:24:01.316Z,-18.15
2022-12-13T17:29:13.117Z,-18.34
2022-12-13T17:34:22.164Z,-18.62
2022-12-13T17:39:28.366Z,-18.69
2022-12-13T17:44:33.681Z,-19.32
2022-12-13T17:49:38.233Z,-18.76
2022-12-13T17:54:42.047Z,-19.38
2022-12-13T17:59:48.391Z,-19.19
2022-12-13T18:04:55.072Z,-21.69
2022-12-13T18:09:59.454Z,-19.84
2022-12-13T18:15:15.875Z,-20.06
2022-12-13T18:20:19.777Z,-19.62
2022-12-13T18:25:26.416Z,-20.88
2022-12-13T18:30:36.754Z,-19.42
2022-12-13T18:35:40.721Z,-19.44
2022-12-13T18:40:44.688Z,-21.14
2022-12-13T18:45:50.106Z,-21.64
2022-12-13T18:50:55.223Z,-19.58
2022-12-13T18:56:02.683Z,-20.66
2022-12-13T19:01:11.875Z,-19.66
2022-12-13T19:06:19.666Z,-20.01
2022-12-13T19:11:25.964Z,-20.16
2022-12-13T19:16:31.580Z,-20.02
2022-12-13T19:21:35.403Z,-19.79
2022-12-13T19:26:39.094Z,-19.82
2022-12-13T19:31:45.266Z,-19.89
2022-12-13T19:36:49.540Z,-20.01
2022-12-13T19:41:53.252Z,-20.60
2022-12-13T19:47:00.535Z,-20.09
2022-12-13T19:52:04.233Z,-20.14
2022-12-13T19:57:07.688Z,-20.14
2022-12-13T20:02:13.690Z,-20.16
2022-12-13T20:07:16.996Z,-20.27
2022-12-13T20:12:20.795Z,-20.28
2022-12-13T20:17:25.569Z,-20.28
2022-12-13T20:22:29.101Z,-20.28
2022-12-13T20:27:32.427Z,-20.30
2022-12-13T20:32:37.177Z,-20.35
2022-12-13T20:37:41.531Z,-20.38
2022-12-13T20:42:45.456Z,-20.50
2022-12-13T20:48:09.721Z,-20.52
2022-12-13T20:53:15.028Z,-20.62
2022-12-13T20:58:18.530Z,-20.68
2022-12-13T21:03:23.699Z,-20.63
2022-12-13T21:08:44.775Z,-20.69
2022-12-13T21:13:48.438Z,-20.78
2022-12-13T21:18:56.178Z,-20.75
2022-12-13T21:23:59.904Z,-20.77
2022-12-13T21:29:05.006Z,-20.76
2022-12-13T21:34:10.677Z,-20.80
2022-12-13T21:39:15.719Z,-20.85
2022-12-13T21:44:20.478Z,-20.88
2022-12-13T21:49:25.613Z,-20.90
2022-12-13T21:54:29.202Z,-21.02
2022-12-13T21:59:35.672Z,-20.97
2022-12-13T22:04:44.425Z,-21.00
2022-12-13T22:09:48.331Z,-20.98
2022-12-13T22:14:54.992Z,-21.00
2022-12-13T22:20:00.849Z,-20.96
2022-12-13T22:25:04.510Z,-20.97
2022-12-13T22:30:08.621Z,-21.12
2022-12-13T22:35:14.517Z,-21.17
2022-12-13T22:40:17.825Z,-21.21
